sensor_id;sensor_type;location;lat;lon;timestamp;temperature;humidity
6291;DHT22;3178;48.730;8.990;2022-12-31T00:01:19;11.20;99.90
6291;DHT22;3178;48.730;8.990;2022-12-31T00:03:45;11.20;99.90
6291;DHT22;3178;48.730;8.990;2022-12-31T00:06:22;11.20;99.90
6291;DHT22;3178;48.730;8.990;2022-12-31T00:08:48;11.20;99.90
6291;DHT22;3178;48.730;8.990;2022-12-31T00:11:15;11.20;99.90
6291;DHT22;3178;48.730;8.990;2022-12-31T00:13:41;11.20;99.90
6291;DHT22;3178;48.730;8.990;2022-12-31T00:16:12;11.30;99.90
6291;DHT22;3178;48.730;8.990;2022-12-31T00:18:42;11.30;99.90
6291;DHT22;3178;48.730;8.990;2022-12-31T00:21:09;11.30;99.90
6291;DHT22;3178;48.730;8.990;2022-12-31T00:23:35;11.30;99.90
6291;DHT22;3178;48.730;8.990;2022-12-31T00:26:07;11.30;99.90
6291;DHT22;3178;48.730;8.990;2022-12-31T00:28:34;11.30;99.90
6291;DHT22;3178;48.730;8.990;2022-12-31T00:31:11;11.30;99.90
6291;DHT22;3178;48.730;8.990;2022-12-31T00:33:38;11.40;99.90
6291;DHT22;3178;48.730;8.990;2022-12-31T00:36:19;11.40;99.90
6291;DHT22;3178;48.730;8.990;2022-12-31T00:38:47;11.40;99.90
6291;DHT22;3178;48.730;8.990;2022-12-31T00:41:14;11.50;99.90
6291;DHT22;3178;48.730;8.990;2022-12-31T00:43:40;11.50;99.90
6291;DHT22;3178;48.730;8.990;2022-12-31T00:46:06;11.60;99.90
6291;DHT22;3178;48.730;8.990;2022-12-31T00:48:33;11.60;99.90
6291;DHT22;3178;48.730;8.990;2022-12-31T00:50:59;11.70;99.90
6291;DHT22;3178;48.730;8.990;2022-12-31T00:53:25;11.80;99.90
6291;DHT22;3178;48.730;8.990;2022-12-31T00:55:51;11.90;99.90
6291;DHT22;3178;48.730;8.990;2022-12-31T00:58:17;11.80;99.90
6291;DHT22;3178;48.730;8.990;2022-12-31T01:00:42;11.80;99.90
6291;DHT22;3178;48.730;8.990;2022-12-31T01:03:08;11.90;99.90
6291;DHT22;3178;48.730;8.990;2022-12-31T01:05:35;11.90;99.90
6291;DHT22;3178;48.730;8.990;2022-12-31T01:08:01;11.90;99.90
6291;DHT22;3178;48.730;8.990;2022-12-31T01:10:27;11.90;99.90
6291;DHT22;3178;48.730;8.990;2022-12-31T01:13:11;11.90;99.90
6291;DHT22;3178;48.730;8.990;2022-12-31T01:15:37;11.90;99.90
6291;DHT22;3178;48.730;8.990;2022-12-31T01:18:05;11.90;99.90
6291;DHT22;3178;48.730;8.990;2022-12-31T01:20:36;11.90;99.90
6291;DHT22;3178;48.730;8.990;2022-12-31T01:23:02;11.90;99.90
6291;DHT22;3178;48.730;8.990;2022-12-31T01:25:27;12.00;99.90
6291;DHT22;3178;48.730;8.990;2022-12-31T01:27:53;12.00;99.90
6291;DHT22;3178;48.730;8.990;2022-12-31T01:30:18;12.00;99.90
6291;DHT22;3178;48.730;8.990;2022-12-31T01:32:44;12.00;99.90
6291;DHT22;3178;48.730;8.990;2022-12-31T01:35:10;11.90;99.90
6291;DHT22;3178;48.730;8.990;2022-12-31T01:37:35;11.90;99.90
6291;DHT22;3178;48.730;8.990;2022-12-31T01:40:01;11.90;99.90
6291;DHT22;3178;48.730;8.990;2022-12-31T01:42:26;11.90;99.90
6291;DHT22;3178;48.730;8.990;2022-12-31T01:44:54;11.80;99.90
6291;DHT22;3178;48.730;8.990;2022-12-31T01:47:37;11.80;99.90
6291;DHT22;3178;48.730;8.990;2022-12-31T01:50:09;11.80;99.90
6291;DHT22;3178;48.730;8.990;2022-12-31T01:52:49;11.80;99.90
6291;DHT22;3178;48.730;8.990;2022-12-31T01:55:20;11.80;99.90
6291;DHT22;3178;48.730;8.990;2022-12-31T01:57:49;11.80;99.90
6291;DHT22;3178;48.730;8.990;2022-12-31T02:00:16;11.80;99.90
6291;DHT22;3178;48.730;8.990;2022-12-31T02:02:42;11.80;99.90
6291;DHT22;3178;48.730;8.990;2022-12-31T02:05:25;11.80;99.90
6291;DHT22;3178;48.730;8.990;2022-12-31T02:07:53;11.80;99.90
6291;DHT22;3178;48.730;8.990;2022-12-31T02:10:18;11.80;99.90
6291;DHT22;3178;48.730;8.990;2022-12-31T02:12:45;11.70;99.90
6291;DHT22;3178;48.730;8.990;2022-12-31T02:15:11;11.80;99.90
6291;DHT22;3178;48.730;8.990;2022-12-31T02:18:03;11.70;99.90
6291;DHT22;3178;48.730;8.990;2022-12-31T02:26:11;11.90;99.90
6291;DHT22;3178;48.730;8.990;2022-12-31T02:37:15;12.10;99.90
6291;DHT22;3178;48.730;8.990;2022-12-31T02:39:42;12.10;99.90
6291;DHT22;3178;48.730;8.990;2022-12-31T02:42:09;12.10;99.90
6291;DHT22;3178;48.730;8.990;2022-12-31T02:44:37;12.20;99.90
6291;DHT22;3178;48.730;8.990;2022-12-31T02:47:24;12.20;99.90
6291;DHT22;3178;48.730;8.990;2022-12-31T02:50:19;12.30;99.90
6291;DHT22;3178;48.730;8.990;2022-12-31T02:53:26;12.30;99.90
6291;DHT22;3178;48.730;8.990;2022-12-31T02:56:04;12.20;99.90
6291;DHT22;3178;48.730;8.990;2022-12-31T03:01:43;12.30;99.90
6291;DHT22;3178;48.730;8.990;2022-12-31T03:04:31;12.30;99.90
6291;DHT22;3178;48.730;8.990;2022-12-31T03:07:09;12.30;99.90
6291;DHT22;3178;48.730;8.990;2022-12-31T03:09:36;12.40;99.90
6291;DHT22;3178;48.730;8.990;2022-12-31T03:12:03;12.40;99.90
6291;DHT22;3178;48.730;8.990;2022-12-31T03:14:48;12.50;99.90
6291;DHT22;3178;48.730;8.990;2022-12-31T03:17:14;12.50;99.90
6291;DHT22;3178;48.730;8.990;2022-12-31T03:19:39;12.60;99.90
6291;DHT22;3178;48.730;8.990;2022-12-31T03:22:23;12.60;99.90
6291;DHT22;3178;48.730;8.990;2022-12-31T03:24:56;12.60;99.90
6291;DHT22;3178;48.730;8.990;2022-12-31T03:27:40;12.60;99.90
6291;DHT22;3178;48.730;8.990;2022-12-31T03:30:06;12.60;99.90
6291;DHT22;3178;48.730;8.990;2022-12-31T03:32:32;12.70;99.90
6291;DHT22;3178;48.730;8.990;2022-12-31T03:34:58;12.70;99.90
6291;DHT22;3178;48.730;8.990;2022-12-31T03:37:23;12.70;99.90
6291;DHT22;3178;48.730;8.990;2022-12-31T03:39:49;12.80;99.90
6291;DHT22;3178;48.730;8.990;2022-12-31T03:42:14;12.70;99.90
6291;DHT22;3178;48.730;8.990;2022-12-31T03:44:40;12.80;99.90
6291;DHT22;3178;48.730;8.990;2022-12-31T03:47:05;12.80;99.90
6291;DHT22;3178;48.730;8.990;2022-12-31T03:49:31;12.70;99.90
6291;DHT22;3178;48.730;8.990;2022-12-31T03:51:56;12.70;99.90
6291;DHT22;3178;48.730;8.990;2022-12-31T03:54:22;12.70;99.90
6291;DHT22;3178;48.730;8.990;2022-12-31T03:56:47;12.70;99.90
6291;DHT22;3178;48.730;8.990;2022-12-31T03:59:13;12.80;99.90
6291;DHT22;3178;48.730;8.990;2022-12-31T04:01:38;12.80;99.90
6291;DHT22;3178;48.730;8.990;2022-12-31T04:04:04;12.80;99.90
6291;DHT22;3178;48.730;8.990;2022-12-31T04:06:29;12.70;99.90
6291;DHT22;3178;48.730;8.990;2022-12-31T04:08:55;12.80;99.90
6291;DHT22;3178;48.730;8.990;2022-12-31T04:11:20;12.80;99.90
6291;DHT22;3178;48.730;8.990;2022-12-31T04:13:46;12.90;99.90
6291;DHT22;3178;48.730;8.990;2022-12-31T04:16:11;12.90;99.90
6291;DHT22;3178;48.730;8.990;2022-12-31T04:18:37;13.00;99.90
6291;DHT22;3178;48.730;8.990;2022-12-31T04:21:03;13.00;99.90
6291;DHT22;3178;48.730;8.990;2022-12-31T04:23:29;13.00;99.90
6291;DHT22;3178;48.730;8.990;2022-12-31T04:25:54;13.00;99.90
6291;DHT22;3178;48.730;8.990;2022-12-31T04:28:20;13.00;99.90
6291;DHT22;3178;48.730;8.990;2022-12-31T04:30:45;13.10;99.90
6291;DHT22;3178;48.730;8.990;2022-12-31T04:33:11;13.00;99.90
6291;DHT22;3178;48.730;8.990;2022-12-31T04:35:36;13.00;99.90
6291;DHT22;3178;48.730;8.990;2022-12-31T04:38:02;13.00;99.90
6291;DHT22;3178;48.730;8.990;2022-12-31T04:40:27;13.00;99.90
6291;DHT22;3178;48.730;8.990;2022-12-31T04:42:53;13.00;99.90
6291;DHT22;3178;48.730;8.990;2022-12-31T04:45:18;13.10;99.90
6291;DHT22;3178;48.730;8.990;2022-12-31T04:47:44;13.10;99.90
6291;DHT22;3178;48.730;8.990;2022-12-31T04:50:09;13.10;99.90
6291;DHT22;3178;48.730;8.990;2022-12-31T04:52:35;13.20;99.90
6291;DHT22;3178;48.730;8.990;2022-12-31T04:55:00;13.20;99.90
6291;DHT22;3178;48.730;8.990;2022-12-31T04:57:26;13.20;99.90
6291;DHT22;3178;48.730;8.990;2022-12-31T04:59:51;13.20;99.90
6291;DHT22;3178;48.730;8.990;2022-12-31T05:02:17;13.20;99.90
6291;DHT22;3178;48.730;8.990;2022-12-31T05:04:42;13.30;99.90
6291;DHT22;3178;48.730;8.990;2022-12-31T05:07:08;13.20;99.90
6291;DHT22;3178;48.730;8.990;2022-12-31T05:09:34;13.30;99.90
6291;DHT22;3178;48.730;8.990;2022-12-31T05:11:59;13.30;99.90
6291;DHT22;3178;48.730;8.990;2022-12-31T05:14:25;13.30;99.90
6291;DHT22;3178;48.730;8.990;2022-12-31T05:16:51;13.30;99.90
6291;DHT22;3178;48.730;8.990;2022-12-31T05:19:16;13.30;99.90
6291;DHT22;3178;48.730;8.990;2022-12-31T05:21:42;13.30;99.90
6291;DHT22;3178;48.730;8.990;2022-12-31T05:24:08;13.30;99.90
6291;DHT22;3178;48.730;8.990;2022-12-31T05:26:34;13.40;99.90
6291;DHT22;3178;48.730;8.990;2022-12-31T05:28:59;13.40;99.90
6291;DHT22;3178;48.730;8.990;2022-12-31T05:31:25;13.30;99.90
6291;DHT22;3178;48.730;8.990;2022-12-31T05:33:51;13.30;99.90
6291;DHT22;3178;48.730;8.990;2022-12-31T05:36:17;13.30;99.90
6291;DHT22;3178;48.730;8.990;2022-12-31T05:38:43;13.40;99.90
6291;DHT22;3178;48.730;8.990;2022-12-31T05:41:10;13.40;99.90
6291;DHT22;3178;48.730;8.990;2022-12-31T05:43:35;13.40;99.90
6291;DHT22;3178;48.730;8.990;2022-12-31T05:46:02;13.40;99.90
6291;DHT22;3178;48.730;8.990;2022-12-31T05:48:28;13.40;99.90
6291;DHT22;3178;48.730;8.990;2022-12-31T05:50:53;13.40;99.90
6291;DHT22;3178;48.730;8.990;2022-12-31T05:53:19;13.40;99.90
6291;DHT22;3178;48.730;8.990;2022-12-31T05:55:46;13.40;99.90
6291;DHT22;3178;48.730;8.990;2022-12-31T05:58:12;13.40;99.90
6291;DHT22;3178;48.730;8.990;2022-12-31T06:00:38;13.40;99.90
6291;DHT22;3178;48.730;8.990;2022-12-31T06:03:04;13.40;99.90
6291;DHT22;3178;48.730;8.990;2022-12-31T06:05:29;13.40;99.90
6291;DHT22;3178;48.730;8.990;2022-12-31T06:07:55;13.40;99.90
6291;DHT22;3178;48.730;8.990;2022-12-31T06:10:20;13.30;99.90
6291;DHT22;3178;48.730;8.990;2022-12-31T06:12:46;13.30;99.90
6291;DHT22;3178;48.730;8.990;2022-12-31T06:15:11;13.30;99.90
6291;DHT22;3178;48.730;8.990;2022-12-31T06:17:37;13.20;99.90
6291;DHT22;3178;48.730;8.990;2022-12-31T06:20:03;13.20;99.90
6291;DHT22;3178;48.730;8.990;2022-12-31T06:22:28;13.20;99.90
6291;DHT22;3178;48.730;8.990;2022-12-31T06:24:54;13.10;99.90
6291;DHT22;3178;48.730;8.990;2022-12-31T06:27:19;13.00;99.90
6291;DHT22;3178;48.730;8.990;2022-12-31T06:29:45;13.00;99.90
6291;DHT22;3178;48.730;8.990;2022-12-31T06:32:11;13.00;99.90
6291;DHT22;3178;48.730;8.990;2022-12-31T06:34:37;12.90;99.90
6291;DHT22;3178;48.730;8.990;2022-12-31T06:37:02;12.90;99.90
6291;DHT22;3178;48.730;8.990;2022-12-31T06:39:28;12.80;99.90
6291;DHT22;3178;48.730;8.990;2022-12-31T06:41:53;12.80;99.90
6291;DHT22;3178;48.730;8.990;2022-12-31T06:44:19;12.80;99.90
6291;DHT22;3178;48.730;8.990;2022-12-31T06:46:47;12.70;99.90
6291;DHT22;3178;48.730;8.990;2022-12-31T06:49:13;12.70;99.90
6291;DHT22;3178;48.730;8.990;2022-12-31T06:51:38;12.70;99.90
6291;DHT22;3178;48.730;8.990;2022-12-31T06:54:04;12.60;99.90
6291;DHT22;3178;48.730;8.990;2022-12-31T06:56:29;12.60;99.90
6291;DHT22;3178;48.730;8.990;2022-12-31T06:58:55;12.60;99.90
6291;DHT22;3178;48.730;8.990;2022-12-31T07:07:28;12.50;99.90
6291;DHT22;3178;48.730;8.990;2022-12-31T07:18:22;12.40;99.90
6291;DHT22;3178;48.730;8.990;2022-12-31T07:20:48;12.40;99.90
6291;DHT22;3178;48.730;8.990;2022-12-31T07:23:14;12.50;99.90
6291;DHT22;3178;48.730;8.990;2022-12-31T07:26:29;12.50;99.90
6291;DHT22;3178;48.730;8.990;2022-12-31T07:28:42;12.50;99.90
6291;DHT22;3178;48.730;8.990;2022-12-31T07:36:49;12.50;99.90
6291;DHT22;3178;48.730;8.990;2022-12-31T07:40:07;12.50;99.90
6291;DHT22;3178;48.730;8.990;2022-12-31T07:42:35;12.60;99.90
6291;DHT22;3178;48.730;8.990;2022-12-31T07:47:41;12.60;99.90
6291;DHT22;3178;48.730;8.990;2022-12-31T07:50:13;12.50;99.90
6291;DHT22;3178;48.730;8.990;2022-12-31T07:52:40;12.60;99.90
6291;DHT22;3178;48.730;8.990;2022-12-31T07:55:06;12.60;99.90
6291;DHT22;3178;48.730;8.990;2022-12-31T07:57:58;12.60;99.90
6291;DHT22;3178;48.730;8.990;2022-12-31T08:00:22;12.60;99.90
6291;DHT22;3178;48.730;8.990;2022-12-31T08:06:07;12.70;99.90
6291;DHT22;3178;48.730;8.990;2022-12-31T08:08:54;12.80;99.90
6291;DHT22;3178;48.730;8.990;2022-12-31T08:11:42;12.80;99.90
6291;DHT22;3178;48.730;8.990;2022-12-31T08:14:11;12.90;99.90
6291;DHT22;3178;48.730;8.990;2022-12-31T08:16:37;12.90;99.90
6291;DHT22;3178;48.730;8.990;2022-12-31T08:19:04;12.90;99.90
6291;DHT22;3178;48.730;8.990;2022-12-31T08:21:51;13.00;99.90
6291;DHT22;3178;48.730;8.990;2022-12-31T08:24:36;13.00;99.90
6291;DHT22;3178;48.730;8.990;2022-12-31T08:29:42;13.10;99.90
6291;DHT22;3178;48.730;8.990;2022-12-31T08:35:05;13.40;99.90
6291;DHT22;3178;48.730;8.990;2022-12-31T08:37:41;13.30;99.90
6291;DHT22;3178;48.730;8.990;2022-12-31T08:40:24;13.50;99.90
6291;DHT22;3178;48.730;8.990;2022-12-31T08:43:08;13.50;99.90
6291;DHT22;3178;48.730;8.990;2022-12-31T08:45:42;13.50;99.90
6291;DHT22;3178;48.730;8.990;2022-12-31T08:50:53;13.50;99.90
6291;DHT22;3178;48.730;8.990;2022-12-31T08:53:20;13.50;99.90
6291;DHT22;3178;48.730;8.990;2022-12-31T08:55:48;13.40;99.90
6291;DHT22;3178;48.730;8.990;2022-12-31T08:58:35;13.50;99.90
6291;DHT22;3178;48.730;8.990;2022-12-31T09:01:05;13.50;99.90
6291;DHT22;3178;48.730;8.990;2022-12-31T09:06:38;13.60;99.90
6291;DHT22;3178;48.730;8.990;2022-12-31T09:09:18;13.70;99.90
6291;DHT22;3178;48.730;8.990;2022-12-31T09:11:48;13.80;99.90
6291;DHT22;3178;48.730;8.990;2022-12-31T09:17:32;14.30;99.90
6291;DHT22;3178;48.730;8.990;2022-12-31T09:20:00;14.60;99.90
6291;DHT22;3178;48.730;8.990;2022-12-31T09:22:26;14.80;99.90
6291;DHT22;3178;48.730;8.990;2022-12-31T09:24:52;15.00;99.90
6291;DHT22;3178;48.730;8.990;2022-12-31T09:30:04;15.50;99.90
6291;DHT22;3178;48.730;8.990;2022-12-31T09:35:26;16.00;99.90
6291;DHT22;3178;48.730;8.990;2022-12-31T09:38:10;16.20;99.90
6291;DHT22;3178;48.730;8.990;2022-12-31T09:46:23;16.80;99.90
6291;DHT22;3178;48.730;8.990;2022-12-31T09:49:25;17.00;99.90
6291;DHT22;3178;48.730;8.990;2022-12-31T09:52:24;16.90;99.90
6291;DHT22;3178;48.730;8.990;2022-12-31T09:55:30;17.10;99.90
6291;DHT22;3178;48.730;8.990;2022-12-31T09:58:14;17.20;99.90
6291;DHT22;3178;48.730;8.990;2022-12-31T10:00:51;17.40;99.90
6291;DHT22;3178;48.730;8.990;2022-12-31T10:15:52;17.90;99.90
6291;DHT22;3178;48.730;8.990;2022-12-31T10:25:00;18.40;99.90
6291;DHT22;3178;48.730;8.990;2022-12-31T10:30:11;18.70;99.90
6291;DHT22;3178;48.730;8.990;2022-12-31T10:32:43;18.90;99.90
6291;DHT22;3178;48.730;8.990;2022-12-31T10:38:16;19.10;99.90
6291;DHT22;3178;48.730;8.990;2022-12-31T10:41:00;19.00;99.90
6291;DHT22;3178;48.730;8.990;2022-12-31T10:46:59;19.30;99.90
6291;DHT22;3178;48.730;8.990;2022-12-31T10:57:43;19.70;99.90
6291;DHT22;3178;48.730;8.990;2022-12-31T11:00:19;19.80;99.90
6291;DHT22;3178;48.730;8.990;2022-12-31T11:05:43;19.70;99.90
6291;DHT22;3178;48.730;8.990;2022-12-31T11:11:20;19.90;99.90
6291;DHT22;3178;48.730;8.990;2022-12-31T11:16:14;20.20;99.90
6291;DHT22;3178;48.730;8.990;2022-12-31T11:18:49;20.00;99.90
6291;DHT22;3178;48.730;8.990;2022-12-31T11:24:33;20.10;99.90
6291;DHT22;3178;48.730;8.990;2022-12-31T11:37:46;19.80;99.90
6291;DHT22;3178;48.730;8.990;2022-12-31T11:40:34;19.80;99.90
6291;DHT22;3178;48.730;8.990;2022-12-31T11:51:38;20.70;99.90
6291;DHT22;3178;48.730;8.990;2022-12-31T12:00:00;20.50;99.90
6291;DHT22;3178;48.730;8.990;2022-12-31T12:02:30;20.70;99.90
6291;DHT22;3178;48.730;8.990;2022-12-31T12:04:59;20.80;99.90
6291;DHT22;3178;48.730;8.990;2022-12-31T12:07:26;20.90;99.90
6291;DHT22;3178;48.730;8.990;2022-12-31T12:09:54;20.80;99.90
6291;DHT22;3178;48.730;8.990;2022-12-31T12:12:20;20.80;99.90
6291;DHT22;3178;48.730;8.990;2022-12-31T12:14:52;20.70;99.90
6291;DHT22;3178;48.730;8.990;2022-12-31T12:17:26;20.70;99.90
6291;DHT22;3178;48.730;8.990;2022-12-31T12:20:00;20.60;99.90
6291;DHT22;3178;48.730;8.990;2022-12-31T12:22:27;20.60;99.90
6291;DHT22;3178;48.730;8.990;2022-12-31T12:25:00;20.70;99.90
6291;DHT22;3178;48.730;8.990;2022-12-31T12:27:29;20.50;99.90
6291;DHT22;3178;48.730;8.990;2022-12-31T12:29:55;20.40;99.90
6291;DHT22;3178;48.730;8.990;2022-12-31T12:32:23;20.30;99.90
6291;DHT22;3178;48.730;8.990;2022-12-31T12:34:50;20.00;99.90
6291;DHT22;3178;48.730;8.990;2022-12-31T12:40:00;19.60;99.90
6291;DHT22;3178;48.730;8.990;2022-12-31T12:42:27;19.50;99.90
6291;DHT22;3178;48.730;8.990;2022-12-31T12:45:55;19.50;99.90
6291;DHT22;3178;48.730;8.990;2022-12-31T12:48:02;19.50;99.90
6291;DHT22;3178;48.730;8.990;2022-12-31T12:50:37;19.60;99.90
6291;DHT22;3178;48.730;8.990;2022-12-31T12:53:13;19.60;99.90
6291;DHT22;3178;48.730;8.990;2022-12-31T12:56:07;19.60;99.90
6291;DHT22;3178;48.730;8.990;2022-12-31T13:12:50;18.70;99.90
6291;DHT22;3178;48.730;8.990;2022-12-31T13:15:17;18.60;99.90
6291;DHT22;3178;48.730;8.990;2022-12-31T13:18:08;18.50;99.90
6291;DHT22;3178;48.730;8.990;2022-12-31T13:20:46;18.40;99.90
6291;DHT22;3178;48.730;8.990;2022-12-31T13:23:37;18.40;99.90
6291;DHT22;3178;48.730;8.990;2022-12-31T13:26:17;18.40;99.90
6291;DHT22;3178;48.730;8.990;2022-12-31T13:28:45;18.40;99.90
6291;DHT22;3178;48.730;8.990;2022-12-31T13:31:16;18.30;99.90
6291;DHT22;3178;48.730;8.990;2022-12-31T13:33:44;18.20;99.90
6291;DHT22;3178;48.730;8.990;2022-12-31T13:36:20;18.20;99.90
6291;DHT22;3178;48.730;8.990;2022-12-31T13:38:52;18.10;99.90
6291;DHT22;3178;48.730;8.990;2022-12-31T13:41:41;18.10;99.90
6291;DHT22;3178;48.730;8.990;2022-12-31T13:44:17;18.10;99.90
6291;DHT22;3178;48.730;8.990;2022-12-31T13:49:36;18.00;99.90
6291;DHT22;3178;48.730;8.990;2022-12-31T13:52:41;17.90;99.90
6291;DHT22;3178;48.730;8.990;2022-12-31T13:55:36;17.80;99.90
6291;DHT22;3178;48.730;8.990;2022-12-31T13:58:20;17.80;99.90
6291;DHT22;3178;48.730;8.990;2022-12-31T14:00:57;17.70;99.90
6291;DHT22;3178;48.730;8.990;2022-12-31T14:03:48;17.70;99.90
6291;DHT22;3178;48.730;8.990;2022-12-31T14:06:33;17.60;99.90
6291;DHT22;3178;48.730;8.990;2022-12-31T14:09:00;17.60;99.90
6291;DHT22;3178;48.730;8.990;2022-12-31T14:17:16;17.40;99.90
6291;DHT22;3178;48.730;8.990;2022-12-31T14:19:59;17.40;99.90
6291;DHT22;3178;48.730;8.990;2022-12-31T14:23:36;17.30;99.90
6291;DHT22;3178;48.730;8.990;2022-12-31T14:28:42;17.00;99.90
6291;DHT22;3178;48.730;8.990;2022-12-31T14:31:14;16.90;99.90
6291;DHT22;3178;48.730;8.990;2022-12-31T14:34:05;16.80;99.90
6291;DHT22;3178;48.730;8.990;2022-12-31T14:37:02;16.80;99.90
6291;DHT22;3178;48.730;8.990;2022-12-31T14:39:45;16.70;99.90
6291;DHT22;3178;48.730;8.990;2022-12-31T14:42:29;16.60;99.90
6291;DHT22;3178;48.730;8.990;2022-12-31T14:45:14;16.50;99.90
6291;DHT22;3178;48.730;8.990;2022-12-31T14:50:34;16.40;99.90
6291;DHT22;3178;48.730;8.990;2022-12-31T14:58:00;16.20;99.90
6291;DHT22;3178;48.730;8.990;2022-12-31T15:00:37;16.20;99.90
6291;DHT22;3178;48.730;8.990;2022-12-31T15:03:23;16.10;99.90
6291;DHT22;3178;48.730;8.990;2022-12-31T15:08:50;16.00;99.90
6291;DHT22;3178;48.730;8.990;2022-12-31T15:11:59;16.00;99.90
6291;DHT22;3178;48.730;8.990;2022-12-31T15:14:44;15.90;99.90
6291;DHT22;3178;48.730;8.990;2022-12-31T15:20:26;15.80;99.90
6291;DHT22;3178;48.730;8.990;2022-12-31T15:22:55;15.70;99.90
6291;DHT22;3178;48.730;8.990;2022-12-31T15:25:29;15.70;99.90
6291;DHT22;3178;48.730;8.990;2022-12-31T15:28:25;15.60;99.90
6291;DHT22;3178;48.730;8.990;2022-12-31T15:30:56;15.60;99.90
6291;DHT22;3178;48.730;8.990;2022-12-31T15:33:28;15.50;99.90
6291;DHT22;3178;48.730;8.990;2022-12-31T15:35:55;15.50;99.90
6291;DHT22;3178;48.730;8.990;2022-12-31T15:38:51;15.40;99.90
6291;DHT22;3178;48.730;8.990;2022-12-31T15:41:39;15.30;99.90
6291;DHT22;3178;48.730;8.990;2022-12-31T15:47:33;15.20;99.90
6291;DHT22;3178;48.730;8.990;2022-12-31T15:50:07;15.10;99.90
6291;DHT22;3178;48.730;8.990;2022-12-31T15:52:43;15.10;99.90
6291;DHT22;3178;48.730;8.990;2022-12-31T15:55:36;15.00;99.90
6291;DHT22;3178;48.730;8.990;2022-12-31T15:58:05;15.00;99.90
6291;DHT22;3178;48.730;8.990;2022-12-31T16:03:23;14.80;99.90
6291;DHT22;3178;48.730;8.990;2022-12-31T16:05:49;14.70;99.90
6291;DHT22;3178;48.730;8.990;2022-12-31T16:08:22;14.70;99.90
6291;DHT22;3178;48.730;8.990;2022-12-31T16:10:48;14.60;99.90
6291;DHT22;3178;48.730;8.990;2022-12-31T16:13:20;14.60;99.90
6291;DHT22;3178;48.730;8.990;2022-12-31T16:15:50;14.60;99.90
6291;DHT22;3178;48.730;8.990;2022-12-31T16:18:16;14.40;99.90
6291;DHT22;3178;48.730;8.990;2022-12-31T16:20:44;14.40;99.90
6291;DHT22;3178;48.730;8.990;2022-12-31T16:23:24;14.40;99.90
6291;DHT22;3178;48.730;8.990;2022-12-31T16:25:55;14.30;99.90
6291;DHT22;3178;48.730;8.990;2022-12-31T16:28:28;14.30;99.90
6291;DHT22;3178;48.730;8.990;2022-12-31T16:30:59;14.30;99.90
6291;DHT22;3178;48.730;8.990;2022-12-31T16:33:26;14.20;99.90
6291;DHT22;3178;48.730;8.990;2022-12-31T16:35:56;14.20;99.90
6291;DHT22;3178;48.730;8.990;2022-12-31T16:38:28;14.10;99.90
6291;DHT22;3178;48.730;8.990;2022-12-31T16:43:35;14.00;99.90
6291;DHT22;3178;48.730;8.990;2022-12-31T16:46:22;14.00;99.90
6291;DHT22;3178;48.730;8.990;2022-12-31T16:48:57;14.00;99.90
6291;DHT22;3178;48.730;8.990;2022-12-31T16:51:28;14.00;99.90
6291;DHT22;3178;48.730;8.990;2022-12-31T16:53:55;13.90;99.90
6291;DHT22;3178;48.730;8.990;2022-12-31T16:56:33;13.90;99.90
6291;DHT22;3178;48.730;8.990;2022-12-31T16:59:06;13.90;99.90
6291;DHT22;3178;48.730;8.990;2022-12-31T17:01:37;13.80;99.90
6291;DHT22;3178;48.730;8.990;2022-12-31T17:04:07;13.80;99.90
6291;DHT22;3178;48.730;8.990;2022-12-31T17:06:34;13.70;99.90
6291;DHT22;3178;48.730;8.990;2022-12-31T17:09:05;13.70;99.90
6291;DHT22;3178;48.730;8.990;2022-12-31T17:11:38;13.70;99.90
6291;DHT22;3178;48.730;8.990;2022-12-31T17:14:12;13.60;99.90
6291;DHT22;3178;48.730;8.990;2022-12-31T17:17:06;13.60;99.90
6291;DHT22;3178;48.730;8.990;2022-12-31T17:19:37;13.50;99.90
6291;DHT22;3178;48.730;8.990;2022-12-31T17:22:04;13.50;99.90
6291;DHT22;3178;48.730;8.990;2022-12-31T17:24:32;13.40;99.90
6291;DHT22;3178;48.730;8.990;2022-12-31T17:27:06;13.40;99.90
6291;DHT22;3178;48.730;8.990;2022-12-31T17:29:32;13.30;99.90
6291;DHT22;3178;48.730;8.990;2022-12-31T17:32:00;13.30;99.90
6291;DHT22;3178;48.730;8.990;2022-12-31T17:34:30;13.30;99.90
6291;DHT22;3178;48.730;8.990;2022-12-31T17:37:02;13.20;99.90
6291;DHT22;3178;48.730;8.990;2022-12-31T17:42:07;13.20;99.90
6291;DHT22;3178;48.730;8.990;2022-12-31T17:44:37;13.10;99.90
6291;DHT22;3178;48.730;8.990;2022-12-31T17:47:04;13.10;99.90
6291;DHT22;3178;48.730;8.990;2022-12-31T17:49:30;13.10;99.90
6291;DHT22;3178;48.730;8.990;2022-12-31T17:51:56;13.10;99.90
6291;DHT22;3178;48.730;8.990;2022-12-31T17:54:22;13.10;99.90
6291;DHT22;3178;48.730;8.990;2022-12-31T17:56:47;13.00;99.90
6291;DHT22;3178;48.730;8.990;2022-12-31T17:59:19;13.00;99.90
6291;DHT22;3178;48.730;8.990;2022-12-31T18:01:46;13.00;99.90
6291;DHT22;3178;48.730;8.990;2022-12-31T18:04:13;12.90;99.90
6291;DHT22;3178;48.730;8.990;2022-12-31T18:06:39;13.00;99.90
6291;DHT22;3178;48.730;8.990;2022-12-31T18:09:05;12.90;99.90
6291;DHT22;3178;48.730;8.990;2022-12-31T18:11:30;12.80;99.90
6291;DHT22;3178;48.730;8.990;2022-12-31T18:13:56;12.80;99.90
6291;DHT22;3178;48.730;8.990;2022-12-31T18:16:22;12.80;99.90
6291;DHT22;3178;48.730;8.990;2022-12-31T18:18:48;12.80;99.90
6291;DHT22;3178;48.730;8.990;2022-12-31T18:21:22;12.80;99.90
6291;DHT22;3178;48.730;8.990;2022-12-31T18:23:50;12.80;99.90
6291;DHT22;3178;48.730;8.990;2022-12-31T18:26:19;12.80;99.90
6291;DHT22;3178;48.730;8.990;2022-12-31T18:28:45;12.80;99.90
6291;DHT22;3178;48.730;8.990;2022-12-31T18:31:26;12.70;99.90
6291;DHT22;3178;48.730;8.990;2022-12-31T18:33:53;12.70;99.90
6291;DHT22;3178;48.730;8.990;2022-12-31T18:36:20;12.70;99.90
6291;DHT22;3178;48.730;8.990;2022-12-31T18:38:46;12.70;99.90
6291;DHT22;3178;48.730;8.990;2022-12-31T18:41:23;12.60;99.90
6291;DHT22;3178;48.730;8.990;2022-12-31T18:43:51;12.60;99.90
6291;DHT22;3178;48.730;8.990;2022-12-31T18:46:19;12.60;99.90
6291;DHT22;3178;48.730;8.990;2022-12-31T18:48:45;12.60;99.90
6291;DHT22;3178;48.730;8.990;2022-12-31T18:51:19;12.50;99.90
6291;DHT22;3178;48.730;8.990;2022-12-31T18:53:45;12.50;99.90
6291;DHT22;3178;48.730;8.990;2022-12-31T18:56:13;12.50;99.90
6291;DHT22;3178;48.730;8.990;2022-12-31T18:58:39;12.50;99.90
6291;DHT22;3178;48.730;8.990;2022-12-31T19:01:29;12.50;99.90
6291;DHT22;3178;48.730;8.990;2022-12-31T19:03:57;12.40;99.90
6291;DHT22;3178;48.730;8.990;2022-12-31T19:06:23;12.50;99.90
6291;DHT22;3178;48.730;8.990;2022-12-31T19:08:49;12.40;99.90
6291;DHT22;3178;48.730;8.990;2022-12-31T19:11:15;12.40;99.90
6291;DHT22;3178;48.730;8.990;2022-12-31T19:13:41;12.40;99.90
6291;DHT22;3178;48.730;8.990;2022-12-31T19:16:08;12.40;99.90
6291;DHT22;3178;48.730;8.990;2022-12-31T19:18:33;12.40;99.90
6291;DHT22;3178;48.730;8.990;2022-12-31T19:20:59;12.40;99.90
6291;DHT22;3178;48.730;8.990;2022-12-31T19:23:24;12.40;99.90
6291;DHT22;3178;48.730;8.990;2022-12-31T19:25:50;12.40;99.90
6291;DHT22;3178;48.730;8.990;2022-12-31T19:30:43;12.30;99.90
6291;DHT22;3178;48.730;8.990;2022-12-31T19:33:09;12.30;99.90
6291;DHT22;3178;48.730;8.990;2022-12-31T19:35:34;12.30;99.90
6291;DHT22;3178;48.730;8.990;2022-12-31T19:38:00;12.30;99.90
6291;DHT22;3178;48.730;8.990;2022-12-31T19:40:28;12.20;99.90
6291;DHT22;3178;48.730;8.990;2022-12-31T19:42:55;12.20;99.90
6291;DHT22;3178;48.730;8.990;2022-12-31T19:45:26;12.20;99.90
6291;DHT22;3178;48.730;8.990;2022-12-31T19:47:53;12.20;99.90